Terminal Aerodrome Forecast
Issued by NWS Houston/Galveston, TX

Home | Current Version | Previous Version | Text Only | Print | Product List | Glossary On
Versions: 1 2 3 4 5 6 7 8 9 10 11 12 13 14 15 16 17 18 19 20 21 22 23 24 25 26 27 28 29 30 31 32 33 34 35 36 37 38 39 40 41
000
FTUS44 KHGX 181332 AAA
TAFCLL
TAF AMD
KCLL 181332Z 1814/1912 03006KT 6SM BR OVC006
      TEMPO 1814/1818 3SM BR OVC003
     FM181800 02006KT P6SM SCT009 BKN015
     FM190000 03005KT 6SM BR VCSH SCT009 BKN012
     FM190600 03007KT 4SM SHRA BR OVC006=

USA.gov is the U.S. government's official web portal to all federal, state and local government web resources and services.